createdAt,value
2019-02-25T00:00:34.404Z,958.34
2019-02-25T00:01:42.480Z,958.29
2019-02-25T00:02:50.531Z,958.24
2019-02-25T00:03:58.681Z,958.28
2019-02-25T00:05:06.649Z,958.26
2019-02-25T00:06:14.690Z,958.30
2019-02-25T00:07:22.759Z,958.36
2019-02-25T00:08:30.819Z,958.34
2019-02-25T00:09:39.252Z,958.29
2019-02-25T00:10:46.930Z,958.26
2019-02-25T00:11:54.988Z,958.18
2019-02-25T00:13:03.053Z,958.23
2019-02-25T00:14:11.093Z,958.23
2019-02-25T00:15:19.257Z,958.24
2019-02-25T00:16:27.514Z,958.25
2019-02-25T00:17:35.509Z,958.21
2019-02-25T00:18:43.584Z,958.19
2019-02-25T00:19:51.608Z,958.17
2019-02-25T00:20:59.801Z,958.15
2019-02-25T00:22:07.739Z,958.12
2019-02-25T00:23:15.776Z,958.14
2019-02-25T00:24:23.812Z,958.15
2019-02-25T00:25:31.865Z,958.08
2019-02-25T00:26:40.111Z,958.13
2019-02-25T00:27:48.059Z,958.13
2019-02-25T00:28:56.225Z,958.19
2019-02-25T00:30:03.904Z,958.16
2019-02-25T00:31:11.946Z,958.18
2019-02-25T00:32:20.049Z,958.16
2019-02-25T00:33:28.044Z,958.21
2019-02-25T00:34:36.150Z,958.17
2019-02-25T00:35:44.163Z,958.13
2019-02-25T00:36:52.243Z,958.14
2019-02-25T00:38:00.298Z,958.10
2019-02-25T00:39:08.352Z,958.05
2019-02-25T00:40:16.412Z,958.01
2019-02-25T00:41:24.439Z,958.04
2019-02-25T00:42:32.600Z,958.07
2019-02-25T00:43:40.656Z,958.05
2019-02-25T00:44:48.627Z,958.09
2019-02-25T00:45:56.678Z,958.08
2019-02-25T00:47:04.724Z,958.08
2019-02-25T00:48:12.883Z,958.01
2019-02-25T00:49:20.853Z,958.03
2019-02-25T00:50:28.899Z,958.08
2019-02-25T00:51:36.950Z,958.06
2019-02-25T00:52:45.005Z,957.99
2019-02-25T00:53:53.186Z,958.01
2019-02-25T00:55:01.126Z,957.99
2019-02-25T00:56:09.174Z,958.00
2019-02-25T00:57:17.212Z,957.90
2019-02-25T00:58:25.291Z,957.88
2019-02-25T00:59:33.437Z,957.88
2019-02-25T01:00:41.405Z,957.94
2019-02-25T01:01:49.461Z,957.78
2019-02-25T01:02:57.524Z,957.77
2019-02-25T01:04:05.570Z,957.79
2019-02-25T01:05:13.722Z,957.74
2019-02-25T01:06:21.693Z,957.70
2019-02-25T01:07:29.744Z,957.74
2019-02-25T01:08:37.758Z,957.68
2019-02-25T01:09:45.849Z,957.68
2019-02-25T01:10:54.004Z,957.79
2019-02-25T01:12:01.968Z,957.66
2019-02-25T01:13:10.034Z,957.65
2019-02-25T01:14:18.059Z,957.68
2019-02-25T01:15:26.226Z,957.66
2019-02-25T01:16:34.401Z,957.72
2019-02-25T01:17:42.257Z,957.69
2019-02-25T01:18:50.326Z,957.75
2019-02-25T01:19:58.345Z,957.80
2019-02-25T01:21:06.424Z,957.76
2019-02-25T01:22:14.576Z,957.70
2019-02-25T01:23:22.526Z,957.69
2019-02-25T01:24:30.613Z,957.69
2019-02-25T01:25:38.649Z,957.60
2019-02-25T01:26:46.713Z,957.66
2019-02-25T01:27:54.852Z,957.67
2019-02-25T01:29:02.836Z,957.66
2019-02-25T01:30:10.920Z,957.64
2019-02-25T01:31:19.069Z,957.63
2019-02-25T01:32:27.004Z,957.66
2019-02-25T01:33:35.079Z,957.65
2019-02-25T01:34:43.096Z,957.68
2019-02-25T01:35:51.146Z,957.67
2019-02-25T01:36:59.199Z,957.63
2019-02-25T01:38:07.298Z,957.64
2019-02-25T01:39:15.324Z,957.55
2019-02-25T01:40:23.387Z,957.59
2019-02-25T01:41:31.458Z,957.60
2019-02-25T01:42:39.580Z,957.66
2019-02-25T01:43:47.537Z,957.56
2019-02-25T01:44:55.595Z,957.67
2019-02-25T01:46:03.657Z,957.68
2019-02-25T01:47:11.835Z,957.59
2019-02-25T01:48:19.852Z,957.65
2019-02-25T01:49:27.793Z,957.58
2019-02-25T01:50:35.893Z,957.65
2019-02-25T01:51:43.945Z,957.67
2019-02-25T01:52:52.024Z,957.49
2019-02-25T01:54:00.144Z,957.52
2019-02-25T01:55:08.085Z,957.52
2019-02-25T01:56:16.159Z,957.53
2019-02-25T01:57:24.230Z,957.49
2019-02-25T01:58:32.294Z,957.47
2019-02-25T01:59:40.435Z,957.50
2019-02-25T02:00:48.397Z,957.47
2019-02-25T02:01:56.444Z,957.41
2019-02-25T02:03:04.578Z,957.54
2019-02-25T02:04:12.581Z,957.47
2019-02-25T02:05:20.716Z,957.51
2019-02-25T02:06:28.683Z,957.47
2019-02-25T02:07:36.745Z,957.44
2019-02-25T02:08:44.786Z,957.44
2019-02-25T02:09:52.863Z,957.45
2019-02-25T02:11:01.002Z,957.45
2019-02-25T02:12:08.978Z,957.39
2019-02-25T02:13:17.025Z,957.36
2019-02-25T02:14:25.079Z,957.41
2019-02-25T02:15:33.133Z,957.44
2019-02-25T02:16:41.276Z,957.38
2019-02-25T02:17:49.294Z,957.34
2019-02-25T02:18:57.284Z,957.39
2019-02-25T02:20:05.363Z,957.37
2019-02-25T02:21:13.436Z,957.32
2019-02-25T02:22:21.583Z,957.34
2019-02-25T02:23:29.524Z,957.34
2019-02-25T02:24:37.561Z,957.30
2019-02-25T02:25:45.654Z,957.25
2019-02-25T02:26:53.707Z,957.30
2019-02-25T02:28:01.854Z,957.29
2019-02-25T02:29:09.809Z,957.32
2019-02-25T02:30:17.864Z,957.20
2019-02-25T02:31:25.941Z,957.29
2019-02-25T02:32:34.086Z,957.30
2019-02-25T02:33:42.055Z,957.32
2019-02-25T02:34:50.091Z,957.26
2019-02-25T02:35:58.152Z,957.27
2019-02-25T02:37:06.226Z,957.32
2019-02-25T02:38:14.409Z,957.25
2019-02-25T02:39:22.331Z,957.27
2019-02-25T02:40:30.365Z,957.28
2019-02-25T02:41:38.427Z,957.28
2019-02-25T02:42:46.531Z,957.27
2019-02-25T02:43:54.653Z,957.24
2019-02-25T02:45:02.610Z,957.30
2019-02-25T02:46:10.659Z,957.28
2019-02-25T02:47:18.719Z,957.25
2019-02-25T02:48:26.824Z,957.28
2019-02-25T02:49:34.931Z,957.25
2019-02-25T02:50:42.874Z,957.23
2019-02-25T02:51:50.956Z,957.20
2019-02-25T02:52:59.005Z,957.20
2019-02-25T02:54:07.051Z,957.31
2019-02-25T02:55:15.219Z,957.33
2019-02-25T02:56:23.188Z,957.27
2019-02-25T02:57:31.225Z,957.28
2019-02-25T02:58:39.281Z,957.29
2019-02-25T02:59:47.332Z,957.23
2019-02-25T03:00:55.490Z,957.25
2019-02-25T03:02:03.440Z,957.22
2019-02-25T03:03:11.560Z,957.26
2019-02-25T03:04:19.627Z,957.22
2019-02-25T03:05:27.606Z,957.28
2019-02-25T03:06:35.761Z,957.22
2019-02-25T03:07:43.746Z,957.32
2019-02-25T03:08:51.799Z,957.31
2019-02-25T03:09:59.849Z,957.31
2019-02-25T03:11:07.887Z,957.31
2019-02-25T03:12:16.074Z,957.34
2019-02-25T03:13:24.018Z,957.35
2019-02-25T03:14:32.079Z,957.37
2019-02-25T03:15:40.128Z,957.41
2019-02-25T03:16:48.163Z,957.38
2019-02-25T03:17:56.339Z,957.42
2019-02-25T03:19:04.303Z,957.38
2019-02-25T03:20:12.360Z,957.43
2019-02-25T03:21:20.434Z,957.42
2019-02-25T03:22:28.570Z,957.40
2019-02-25T03:23:36.529Z,957.40
2019-02-25T03:24:44.609Z,957.47
2019-02-25T03:25:52.663Z,957.41
2019-02-25T03:27:00.708Z,957.43
2019-02-25T03:28:08.850Z,957.43
2019-02-25T03:29:16.807Z,957.45
2019-02-25T03:30:24.903Z,957.44
2019-02-25T03:31:32.920Z,957.38
2019-02-25T03:32:41.073Z,957.38
2019-02-25T03:33:49.131Z,957.44
2019-02-25T03:34:57.091Z,957.40
2019-02-25T03:36:05.159Z,957.42
2019-02-25T03:37:13.211Z,957.45
2019-02-25T03:38:21.243Z,957.44
2019-02-25T03:39:29.413Z,957.44
2019-02-25T03:40:37.359Z,957.46
2019-02-25T03:41:45.451Z,957.41
2019-02-25T03:42:53.492Z,957.49
2019-02-25T03:44:01.535Z,957.42
2019-02-25T03:45:09.706Z,957.45
2019-02-25T03:46:17.662Z,957.51
2019-02-25T03:47:25.726Z,957.53
2019-02-25T03:48:33.865Z,957.50
2019-02-25T03:49:41.829Z,957.52
2019-02-25T03:50:49.980Z,957.52
2019-02-25T03:51:57.936Z,957.53
2019-02-25T03:53:06.006Z,957.47
2019-02-25T03:54:14.058Z,957.56
2019-02-25T03:55:22.107Z,957.53
2019-02-25T03:56:30.308Z,957.59
2019-02-25T03:57:38.236Z,957.56
2019-02-25T03:58:46.289Z,957.55
2019-02-25T03:59:54.342Z,957.55
2019-02-25T04:01:02.389Z,957.54
2019-02-25T04:02:10.597Z,957.52
2019-02-25T04:03:18.615Z,957.66
2019-02-25T04:04:26.656Z,957.56
2019-02-25T04:05:34.634Z,957.55
2019-02-25T04:06:42.720Z,957.60
2019-02-25T04:07:50.823Z,957.62
2019-02-25T04:08:58.802Z,957.58
2019-02-25T04:10:06.858Z,957.63
2019-02-25T04:11:14.914Z,957.73
2019-02-25T04:12:22.979Z,957.67
2019-02-25T04:13:31.050Z,957.70
2019-02-25T04:14:39.141Z,957.71
2019-02-25T04:15:47.163Z,957.66
2019-02-25T04:16:55.190Z,957.64
2019-02-25T04:18:03.298Z,957.69
2019-02-25T04:19:11.307Z,957.65
2019-02-25T04:20:19.466Z,957.70
2019-02-25T04:21:27.420Z,957.71
2019-02-25T04:22:35.522Z,957.62
2019-02-25T04:23:43.533Z,957.69
2019-02-25T04:24:51.579Z,957.69
2019-02-25T04:25:59.663Z,957.67
2019-02-25T04:27:07.685Z,957.74
2019-02-25T04:28:15.802Z,957.65
2019-02-25T04:29:23.832Z,957.66
2019-02-25T04:30:31.889Z,957.69
2019-02-25T04:31:39.935Z,957.68
2019-02-25T04:32:48.024Z,957.71
2019-02-25T04:33:56.041Z,957.68
2019-02-25T04:35:04.113Z,957.68
2019-02-25T04:36:12.259Z,957.74
2019-02-25T04:37:20.220Z,957.65
2019-02-25T04:38:28.379Z,957.70
2019-02-25T04:39:36.332Z,957.74
2019-02-25T04:40:44.410Z,957.73
2019-02-25T04:41:52.434Z,957.67
2019-02-25T04:43:00.493Z,957.65
2019-02-25T04:44:08.649Z,957.68
2019-02-25T04:45:16.626Z,957.65
2019-02-25T04:46:24.688Z,957.68
2019-02-25T04:47:32.723Z,957.67
2019-02-25T04:48:40.807Z,957.65
2019-02-25T04:49:48.946Z,957.66
2019-02-25T04:50:56.911Z,957.69
2019-02-25T04:52:05.055Z,957.72
2019-02-25T04:53:13.012Z,957.66
2019-02-25T04:54:21.065Z,957.73
2019-02-25T04:55:29.238Z,957.72
2019-02-25T04:56:37.183Z,957.68
2019-02-25T04:57:45.251Z,957.81
2019-02-25T04:58:53.303Z,957.77
2019-02-25T05:00:01.380Z,957.78
2019-02-25T05:01:09.512Z,957.72
2019-02-25T05:02:17.448Z,957.73
2019-02-25T05:03:25.507Z,957.73
2019-02-25T05:04:33.570Z,957.77
2019-02-25T05:05:41.635Z,957.76
2019-02-25T05:06:49.805Z,957.77
2019-02-25T05:07:57.781Z,957.65
2019-02-25T05:09:05.805Z,957.65
2019-02-25T05:10:13.870Z,957.66
2019-02-25T05:11:21.935Z,957.67
2019-02-25T05:12:30.049Z,957.66
2019-02-25T05:13:38.013Z,957.74
2019-02-25T05:14:46.099Z,957.63
2019-02-25T05:15:54.149Z,957.63
2019-02-25T05:17:02.221Z,957.57
2019-02-25T05:18:10.315Z,957.61
2019-02-25T05:19:18.307Z,957.60
2019-02-25T05:20:26.376Z,957.62
2019-02-25T05:21:34.444Z,957.57
2019-02-25T05:22:42.601Z,957.68
2019-02-25T05:23:50.546Z,957.75
2019-02-25T05:24:58.633Z,957.53
2019-02-25T05:26:06.659Z,957.59
2019-02-25T05:27:14.722Z,957.55
2019-02-25T05:28:22.865Z,957.60
2019-02-25T05:29:30.837Z,957.54
2019-02-25T05:30:38.901Z,957.52
2019-02-25T05:31:46.944Z,957.55
2019-02-25T05:32:55.003Z,957.54
2019-02-25T05:34:03.292Z,957.52
2019-02-25T05:35:11.134Z,957.59
2019-02-25T05:36:19.215Z,957.53
2019-02-25T05:37:27.279Z,957.57
2019-02-25T05:38:36.316Z,957.53
2019-02-25T05:39:43.467Z,957.60
2019-02-25T05:40:51.413Z,957.58
2019-02-25T05:41:59.452Z,957.52
2019-02-25T05:43:07.492Z,957.56
2019-02-25T05:44:15.552Z,957.51
2019-02-25T05:45:23.753Z,957.58
2019-02-25T05:46:31.673Z,957.60
2019-02-25T05:47:40.079Z,957.66
2019-02-25T05:48:47.767Z,957.70
2019-02-25T05:49:55.865Z,957.63
2019-02-25T05:51:04.020Z,957.66
2019-02-25T05:52:12.354Z,957.68
2019-02-25T05:53:21.031Z,957.72
2019-02-25T05:54:28.060Z,957.68
2019-02-25T05:55:36.714Z,957.61
2019-02-25T05:56:44.314Z,957.75
2019-02-25T05:57:52.252Z,957.74
2019-02-25T05:59:00.305Z,957.76
2019-02-25T06:00:08.352Z,957.67
2019-02-25T06:01:16.422Z,957.73
2019-02-25T06:02:24.580Z,957.76
2019-02-25T06:03:32.547Z,957.79
2019-02-25T06:04:40.607Z,957.80
2019-02-25T06:05:48.641Z,957.86
2019-02-25T06:06:56.732Z,957.89
2019-02-25T06:08:04.833Z,957.88
2019-02-25T06:09:12.919Z,957.93
2019-02-25T06:10:20.887Z,957.93
2019-02-25T06:11:28.943Z,957.93
2019-02-25T06:12:37.054Z,957.89
2019-02-25T06:13:45.061Z,957.86
2019-02-25T06:14:53.139Z,957.90
2019-02-25T06:16:01.177Z,957.93
2019-02-25T06:17:09.232Z,957.95
2019-02-25T06:18:17.381Z,957.94
2019-02-25T06:19:25.348Z,958.02
2019-02-25T06:20:33.392Z,957.92
2019-02-25T06:21:41.458Z,957.99
2019-02-25T06:22:49.516Z,957.98
2019-02-25T06:23:57.671Z,958.03
2019-02-25T06:25:05.745Z,958.07
2019-02-25T06:26:13.699Z,958.06
2019-02-25T06:27:30.193Z,958.06
2019-02-25T06:28:29.810Z,958.13
2019-02-25T06:29:37.900Z,958.08
2019-02-25T06:30:45.934Z,958.15
2019-02-25T06:31:53.989Z,958.10
2019-02-25T06:33:02.028Z,958.12
2019-02-25T06:34:10.106Z,958.12
2019-02-25T06:35:18.190Z,958.16
2019-02-25T06:36:26.250Z,958.16
2019-02-25T06:37:34.264Z,958.15
2019-02-25T06:38:42.330Z,958.11
2019-02-25T06:39:50.374Z,958.15
2019-02-25T06:40:58.578Z,958.17
2019-02-25T06:42:06.503Z,958.14
2019-02-25T06:43:14.551Z,958.17
2019-02-25T06:44:22.603Z,958.20
2019-02-25T06:45:31.249Z,958.10
2019-02-25T06:46:38.817Z,958.13
2019-02-25T06:47:46.793Z,958.06
2019-02-25T06:48:54.849Z,958.15
2019-02-25T06:50:02.912Z,958.10
2019-02-25T06:51:10.971Z,958.09
2019-02-25T06:52:20.060Z,958.12
2019-02-25T06:53:27.079Z,958.09
2019-02-25T06:54:35.131Z,958.12
2019-02-25T06:55:43.195Z,958.08
2019-02-25T06:56:51.347Z,958.11
2019-02-25T06:57:59.403Z,958.17
2019-02-25T06:59:07.343Z,958.10
2019-02-25T07:00:15.420Z,958.16
2019-02-25T07:01:23.468Z,958.24
2019-02-25T07:02:31.582Z,958.20
2019-02-25T07:03:39.613Z,958.19
2019-02-25T07:04:47.641Z,958.24
2019-02-25T07:05:55.714Z,958.25
2019-02-25T07:07:03.769Z,958.18
2019-02-25T07:08:11.864Z,958.25
2019-02-25T07:09:19.887Z,958.25
2019-02-25T07:10:27.930Z,958.22
2019-02-25T07:11:36.018Z,958.25
2019-02-25T07:12:44.165Z,958.26
2019-02-25T07:13:52.128Z,958.31
2019-02-25T07:15:00.288Z,958.27
2019-02-25T07:16:08.238Z,958.31
2019-02-25T07:17:16.308Z,958.28
2019-02-25T07:18:24.456Z,958.34
2019-02-25T07:19:32.426Z,958.33
2019-02-25T07:20:40.470Z,958.21
2019-02-25T07:21:48.561Z,958.35
2019-02-25T07:22:56.606Z,958.44
2019-02-25T07:24:04.780Z,958.40
2019-02-25T07:25:12.732Z,958.32
2019-02-25T07:26:20.785Z,958.37
2019-02-25T07:27:28.893Z,958.44
2019-02-25T07:28:36.909Z,958.46
2019-02-25T07:29:45.057Z,958.41
2019-02-25T07:30:53.027Z,958.42
2019-02-25T07:32:01.089Z,958.56
2019-02-25T07:33:09.161Z,958.62
2019-02-25T07:34:17.191Z,958.63
2019-02-25T07:35:25.904Z,958.62
2019-02-25T07:36:33.324Z,958.65
2019-02-25T07:37:41.378Z,958.62
2019-02-25T07:38:49.448Z,958.56
2019-02-25T07:39:57.491Z,958.66
2019-02-25T07:41:05.652Z,958.74
2019-02-25T07:42:13.665Z,958.60
2019-02-25T07:43:21.822Z,958.61
2019-02-25T07:44:29.861Z,958.65
2019-02-25T07:45:37.798Z,958.62
2019-02-25T07:46:46.000Z,958.69
2019-02-25T07:47:54.777Z,958.61
2019-02-25T07:49:02.036Z,958.69
2019-02-25T07:50:10.038Z,958.57
2019-02-25T07:51:18.097Z,958.52
2019-02-25T07:52:26.296Z,958.62
2019-02-25T07:53:34.275Z,958.70
2019-02-25T07:54:42.290Z,958.77
2019-02-25T07:55:50.353Z,958.87
2019-02-25T07:56:58.436Z,958.84
2019-02-25T07:58:06.600Z,958.63
2019-02-25T07:59:14.540Z,958.46
2019-02-25T08:00:22.581Z,958.50
2019-02-25T08:01:30.647Z,958.42
2019-02-25T08:02:38.799Z,958.39
2019-02-25T08:03:46.776Z,958.47
2019-02-25T08:04:54.853Z,958.55
2019-02-25T08:06:02.901Z,958.45
2019-02-25T08:07:10.951Z,958.42
2019-02-25T08:08:19.075Z,958.43
2019-02-25T08:09:27.085Z,958.47
2019-02-25T08:10:35.135Z,958.40
2019-02-25T08:11:43.200Z,958.36
2019-02-25T08:12:51.361Z,958.30
2019-02-25T08:13:59.329Z,958.40
2019-02-25T08:15:08.924Z,958.37
2019-02-25T08:16:15.440Z,958.42
2019-02-25T08:17:23.518Z,958.41
2019-02-25T08:18:31.670Z,958.42
2019-02-25T08:19:39.627Z,958.42
2019-02-25T08:20:47.656Z,958.40
2019-02-25T08:21:55.736Z,958.42
2019-02-25T08:23:03.817Z,958.44
2019-02-25T08:24:11.967Z,958.44
2019-02-25T08:25:19.943Z,958.53
2019-02-25T08:26:27.974Z,958.45
2019-02-25T08:27:36.101Z,958.48
2019-02-25T08:28:44.117Z,958.42
2019-02-25T08:29:52.610Z,958.53
2019-02-25T08:31:00.238Z,958.50
2019-02-25T08:32:08.312Z,958.53
2019-02-25T08:33:16.361Z,958.55
2019-02-25T08:34:24.407Z,958.49
2019-02-25T08:35:32.572Z,958.51
2019-02-25T08:36:40.538Z,958.54
2019-02-25T08:37:48.597Z,958.47
2019-02-25T08:38:56.652Z,958.51
2019-02-25T08:40:04.727Z,958.52
2019-02-25T08:41:12.879Z,958.57
2019-02-25T08:42:20.840Z,958.56
2019-02-25T08:43:28.940Z,958.52
2019-02-25T08:44:36.951Z,958.53
2019-02-25T08:45:45.022Z,958.52
2019-02-25T08:46:53.179Z,958.53
2019-02-25T08:48:02.684Z,958.56
2019-02-25T08:49:09.232Z,958.48
2019-02-25T08:50:17.230Z,958.49
2019-02-25T08:51:25.335Z,958.50
2019-02-25T08:52:33.415Z,958.50
2019-02-25T08:53:41.429Z,958.52
2019-02-25T08:54:49.506Z,958.59
2019-02-25T08:55:58.323Z,958.56
2019-02-25T08:57:05.620Z,958.56
2019-02-25T08:58:13.725Z,958.65
2019-02-25T08:59:21.742Z,958.61
2019-02-25T09:00:29.805Z,958.72
2019-02-25T09:01:37.860Z,958.58
2019-02-25T09:02:45.974Z,958.64
2019-02-25T09:03:53.976Z,958.65
2019-02-25T09:05:02.046Z,958.63
2019-02-25T09:06:10.123Z,958.63
2019-02-25T09:07:18.139Z,958.65
2019-02-25T09:08:26.341Z,958.57
2019-02-25T09:09:34.290Z,958.60
2019-02-25T09:10:42.345Z,958.66
2019-02-25T09:11:50.407Z,958.66
2019-02-25T09:12:58.511Z,958.65
2019-02-25T09:14:06.639Z,958.71
2019-02-25T09:15:14.590Z,958.68
2019-02-25T09:16:22.660Z,958.71
2019-02-25T09:17:30.717Z,958.75
2019-02-25T09:18:38.777Z,958.65
2019-02-25T09:19:46.932Z,958.72
2019-02-25T09:20:54.908Z,958.78
2019-02-25T09:22:02.969Z,958.66
2019-02-25T09:23:11.024Z,958.80
2019-02-25T09:24:19.094Z,958.81
2019-02-25T09:25:27.222Z,958.79
2019-02-25T09:26:35.215Z,958.82
2019-02-25T09:27:43.393Z,958.81
2019-02-25T09:28:51.317Z,958.90
2019-02-25T09:29:59.377Z,958.91
2019-02-25T09:31:07.522Z,958.76
2019-02-25T09:32:15.523Z,958.78
2019-02-25T09:33:23.564Z,958.74
2019-02-25T09:34:31.767Z,958.78
2019-02-25T09:35:40.285Z,958.80
2019-02-25T09:36:47.859Z,958.80
2019-02-25T09:37:55.818Z,958.82
2019-02-25T09:39:04.532Z,958.78
2019-02-25T09:40:12.435Z,958.71
2019-02-25T09:41:27.489Z,958.76
2019-02-25T09:42:28.141Z,958.75
2019-02-25T09:43:36.152Z,958.74
2019-02-25T09:44:44.201Z,958.82
2019-02-25T09:45:52.247Z,958.81
2019-02-25T09:47:00.312Z,958.74
2019-02-25T09:48:08.459Z,958.71
2019-02-25T09:49:16.417Z,958.76
2019-02-25T09:50:24.484Z,958.79
2019-02-25T09:51:32.555Z,958.80
2019-02-25T09:52:40.665Z,958.84
2019-02-25T09:53:48.713Z,958.92
2019-02-25T09:54:56.731Z,958.91
2019-02-25T09:56:04.822Z,958.89
2019-02-25T09:57:12.839Z,958.87
2019-02-25T09:58:21.017Z,958.80
2019-02-25T09:59:28.985Z,958.89
2019-02-25T10:00:37.072Z,958.92
2019-02-25T10:01:45.105Z,958.85
2019-02-25T10:02:53.167Z,958.85
2019-02-25T10:04:01.333Z,958.84
2019-02-25T10:05:09.292Z,958.88
2019-02-25T10:06:17.373Z,958.87
2019-02-25T10:07:25.400Z,958.84
2019-02-25T10:08:33.472Z,958.90
2019-02-25T10:09:41.624Z,958.83
2019-02-25T10:10:49.605Z,958.90
2019-02-25T10:11:57.632Z,958.86
2019-02-25T10:13:05.722Z,958.89
2019-02-25T10:14:13.895Z,958.95
2019-02-25T10:15:21.955Z,958.92
2019-02-25T10:16:29.917Z,958.91
2019-02-25T10:17:37.956Z,958.99
2019-02-25T10:18:46.034Z,958.88
2019-02-25T10:19:54.100Z,958.95
2019-02-25T10:21:02.241Z,958.88
2019-02-25T10:22:10.210Z,958.85
2019-02-25T10:23:18.278Z,958.83
2019-02-25T10:24:26.346Z,958.95
2019-02-25T10:25:34.404Z,958.84
2019-02-25T10:26:42.572Z,958.86
2019-02-25T10:27:50.523Z,958.86
2019-02-25T10:28:58.585Z,958.89
2019-02-25T10:30:06.750Z,958.87
2019-02-25T10:31:15.292Z,958.95
2019-02-25T10:32:23.595Z,959.09
2019-02-25T10:33:30.840Z,959.02
2019-02-25T10:34:38.912Z,958.99
2019-02-25T10:35:46.973Z,958.98
2019-02-25T10:36:55.041Z,958.98
2019-02-25T10:38:03.261Z,959.03
2019-02-25T10:39:12.890Z,958.98
2019-02-25T10:40:22.145Z,959.02
2019-02-25T10:41:27.815Z,959.00
2019-02-25T10:42:36.124Z,959.03
2019-02-25T10:43:43.432Z,959.02
2019-02-25T10:44:51.460Z,958.99
2019-02-25T10:45:59.650Z,959.11
2019-02-25T10:47:07.588Z,959.03
2019-02-25T10:48:17.260Z,958.99
2019-02-25T10:49:26.262Z,959.09
2019-02-25T10:50:33.426Z,958.99
2019-02-25T10:51:41.082Z,958.99
2019-02-25T10:52:49.355Z,959.00
2019-02-25T10:53:55.971Z,958.88
2019-02-25T10:55:04.043Z,958.94
2019-02-25T10:56:12.093Z,959.02
2019-02-25T10:57:21.895Z,958.99
2019-02-25T10:58:29.383Z,959.05
2019-02-25T10:59:36.822Z,958.89
2019-02-25T11:00:45.868Z,958.88
2019-02-25T11:01:52.489Z,958.88
2019-02-25T11:03:00.448Z,958.91
2019-02-25T11:04:08.627Z,958.90
2019-02-25T11:05:16.577Z,958.87
2019-02-25T11:06:26.429Z,958.87
2019-02-25T11:07:33.110Z,958.89
2019-02-25T11:08:41.476Z,958.83
2019-02-25T11:09:50.327Z,959.00
2019-02-25T11:10:56.914Z,958.81
2019-02-25T11:12:04.980Z,958.92
2019-02-25T11:13:13.030Z,958.87
2019-02-25T11:14:21.094Z,958.82
2019-02-25T11:15:29.254Z,958.83
2019-02-25T11:16:37.202Z,958.89
2019-02-25T11:17:45.810Z,958.82
2019-02-25T11:18:54.885Z,958.81
2019-02-25T11:20:03.247Z,958.81
2019-02-25T11:21:10.623Z,958.84
2019-02-25T11:22:17.532Z,958.76
2019-02-25T11:23:25.595Z,958.77
2019-02-25T11:24:33.655Z,958.71
2019-02-25T11:25:41.704Z,958.71
2019-02-25T11:26:49.893Z,958.67
2019-02-25T11:27:57.827Z,958.73
2019-02-25T11:29:07.542Z,958.69
2019-02-25T11:30:14.283Z,958.69
2019-02-25T11:31:24.431Z,958.69
2019-02-25T11:32:30.204Z,958.59
2019-02-25T11:33:38.149Z,958.65
2019-02-25T11:34:46.229Z,958.61
2019-02-25T11:35:54.295Z,958.68
2019-02-25T11:37:02.448Z,958.67
2019-02-25T11:38:10.464Z,958.60
2019-02-25T11:39:18.472Z,958.68
2019-02-25T11:40:28.294Z,958.65
2019-02-25T11:41:36.458Z,958.66
2019-02-25T11:42:42.721Z,958.68
2019-02-25T11:43:52.778Z,958.71
2019-02-25T11:44:59.928Z,958.56
2019-02-25T11:46:06.862Z,958.74
2019-02-25T11:47:14.931Z,958.68
2019-02-25T11:48:23.085Z,958.71
2019-02-25T11:49:31.049Z,958.70
2019-02-25T11:50:39.132Z,958.64
2019-02-25T11:51:47.167Z,958.61
2019-02-25T11:52:55.334Z,958.62
2019-02-25T11:54:03.357Z,958.66
2019-02-25T11:55:11.364Z,958.58
2019-02-25T11:56:19.427Z,958.51
2019-02-25T11:57:27.499Z,958.60
2019-02-25T11:58:35.550Z,958.52
2019-02-25T11:59:43.732Z,958.47
2019-02-25T12:00:51.694Z,958.62
2019-02-25T12:01:59.762Z,958.51
2019-02-25T12:03:07.792Z,958.51
2019-02-25T12:04:15.870Z,958.55
2019-02-25T12:05:24.049Z,958.50
2019-02-25T12:06:32.028Z,958.52
2019-02-25T12:07:40.183Z,958.57
2019-02-25T12:08:48.136Z,958.51
2019-02-25T12:09:56.191Z,958.48
2019-02-25T12:11:04.351Z,958.51
2019-02-25T12:12:12.340Z,958.47
2019-02-25T12:13:20.385Z,958.45
2019-02-25T12:14:28.453Z,958.47
2019-02-25T12:15:36.513Z,958.45
2019-02-25T12:16:44.687Z,958.39
2019-02-25T12:17:52.648Z,958.42
2019-02-25T12:19:00.722Z,958.41
2019-02-25T12:20:08.765Z,958.37
2019-02-25T12:21:16.828Z,958.41
2019-02-25T12:22:24.999Z,958.44
2019-02-25T12:23:32.962Z,958.49
2019-02-25T12:24:41.069Z,958.62
2019-02-25T12:25:49.091Z,958.38
2019-02-25T12:26:57.158Z,958.37
2019-02-25T12:28:05.270Z,958.38
2019-02-25T12:29:13.289Z,958.42
2019-02-25T12:30:21.342Z,958.40
2019-02-25T12:31:29.398Z,958.35
2019-02-25T12:32:37.483Z,958.19
2019-02-25T12:33:45.534Z,958.35
2019-02-25T12:34:53.618Z,958.36
2019-02-25T12:36:01.662Z,958.29
2019-02-25T12:37:09.777Z,958.32
2019-02-25T12:38:17.877Z,958.29
2019-02-25T12:39:25.853Z,958.30
2019-02-25T12:40:33.932Z,958.30
2019-02-25T12:41:42.001Z,958.28
2019-02-25T12:42:50.040Z,958.15
2019-02-25T12:43:58.225Z,958.28
2019-02-25T12:45:06.207Z,958.25
2019-02-25T12:46:14.258Z,958.33
2019-02-25T12:47:22.304Z,958.18
2019-02-25T12:48:30.385Z,958.32
2019-02-25T12:49:38.511Z,958.24
2019-02-25T12:50:46.524Z,958.28
2019-02-25T12:51:54.567Z,958.24
2019-02-25T12:53:02.630Z,958.25
2019-02-25T12:54:10.811Z,958.21
2019-02-25T12:55:18.896Z,958.24
2019-02-25T12:56:26.849Z,958.24
2019-02-25T12:57:34.882Z,958.14
2019-02-25T12:58:42.940Z,958.20
2019-02-25T12:59:51.034Z,958.20
2019-02-25T13:00:59.174Z,958.15
2019-02-25T13:02:07.267Z,958.11
2019-02-25T13:03:15.215Z,958.04
2019-02-25T13:04:23.262Z,958.02
2019-02-25T13:05:31.341Z,958.04
2019-02-25T13:06:39.481Z,958.00
2019-02-25T13:07:47.457Z,958.06
2019-02-25T13:08:55.553Z,958.06
2019-02-25T13:10:03.709Z,958.17
2019-02-25T13:11:11.666Z,958.12
2019-02-25T13:12:19.808Z,958.12
2019-02-25T13:13:27.796Z,958.12
2019-02-25T13:14:35.833Z,958.12
2019-02-25T13:15:43.917Z,958.08
2019-02-25T13:16:51.965Z,958.03
2019-02-25T13:18:00.223Z,958.05
2019-02-25T13:19:08.095Z,958.04
2019-02-25T13:20:16.169Z,958.08
2019-02-25T13:21:24.238Z,958.04
2019-02-25T13:22:32.382Z,958.06
2019-02-25T13:23:40.338Z,957.93
2019-02-25T13:24:48.401Z,957.98
2019-02-25T13:25:56.575Z,957.96
2019-02-25T13:27:05.775Z,957.93
2019-02-25T13:28:12.721Z,957.92
2019-02-25T13:29:20.672Z,957.83
2019-02-25T13:30:28.738Z,957.92
2019-02-25T13:31:36.815Z,957.87
2019-02-25T13:32:44.873Z,957.88
2019-02-25T13:33:53.043Z,957.91
2019-02-25T13:35:01.004Z,957.93
2019-02-25T13:36:09.068Z,957.89
2019-02-25T13:37:17.141Z,957.82
2019-02-25T13:38:25.199Z,957.75
2019-02-25T13:39:33.357Z,957.71
2019-02-25T13:40:41.331Z,957.78
2019-02-25T13:41:49.486Z,957.75
2019-02-25T13:42:57.419Z,957.81
2019-02-25T13:44:05.528Z,957.71
2019-02-25T13:45:13.676Z,957.81
2019-02-25T13:46:21.649Z,957.69
2019-02-25T13:47:29.707Z,957.71
2019-02-25T13:48:37.756Z,957.73
2019-02-25T13:49:45.822Z,957.74
2019-02-25T13:50:53.992Z,957.74
2019-02-25T13:52:01.964Z,957.73
2019-02-25T13:53:10.030Z,957.73
2019-02-25T13:54:18.093Z,957.74
2019-02-25T13:55:26.165Z,957.67
2019-02-25T13:56:34.337Z,957.74
2019-02-25T13:57:42.338Z,957.69
2019-02-25T13:58:50.351Z,957.66
2019-02-25T13:59:58.416Z,957.71
2019-02-25T14:01:06.484Z,957.74
2019-02-25T14:02:14.642Z,957.77
2019-02-25T14:03:22.611Z,957.68
2019-02-25T14:04:30.822Z,957.76
2019-02-25T14:05:38.729Z,957.77
2019-02-25T14:06:46.817Z,957.74
2019-02-25T14:07:54.923Z,957.76
2019-02-25T14:09:02.937Z,957.71